createdAt,value
2022-12-19T00:01:58.597Z,0.43
2022-12-19T00:04:26.784Z,0.42
2022-12-19T00:06:57.485Z,0.43
2022-12-19T00:09:26.351Z,0.45
2022-12-19T00:11:53.571Z,0.44
2022-12-19T00:14:21.562Z,0.43
2022-12-19T00:16:48.834Z,0.45
2022-12-19T00:19:17.973Z,0.47
2022-12-19T00:21:45.542Z,0.48
2022-12-19T00:24:21.215Z,0.44
2022-12-19T00:26:50.631Z,0.42
2022-12-19T00:29:19.329Z,0.43
2022-12-19T00:31:47.509Z,0.41
2022-12-19T00:34:15.550Z,0.45
2022-12-19T00:36:43.592Z,0.52
2022-12-19T00:39:12.405Z,0.48
2022-12-19T00:41:42.667Z,0.37
2022-12-19T00:44:16.431Z,0.38
2022-12-19T00:46:44.558Z,0.37
2022-12-19T00:49:21.628Z,0.36
2022-12-19T00:51:50.334Z,0.39
2022-12-19T00:54:19.056Z,0.41
2022-12-19T00:56:47.715Z,0.38
2022-12-19T00:59:17.136Z,0.41
2022-12-19T01:01:59.642Z,0.44
2022-12-19T01:04:28.500Z,0.40
2022-12-19T01:07:01.954Z,0.44
2022-12-19T01:09:35.608Z,0.45
2022-12-19T01:12:24.690Z,0.44
2022-12-19T01:15:03.880Z,0.41
2022-12-19T01:17:35.489Z,0.56
2022-12-19T01:20:14.743Z,0.53
2022-12-19T01:22:44.222Z,0.40
2022-12-19T01:25:15.237Z,0.40
2022-12-19T01:27:42.840Z,0.39
2022-12-19T01:30:11.762Z,0.36
2022-12-19T01:32:40.603Z,0.38
2022-12-19T01:35:12.349Z,0.32
2022-12-19T01:37:49.264Z,0.33
2022-12-19T01:40:18.438Z,0.27
2022-12-19T01:42:46.928Z,0.30
2022-12-19T01:45:16.155Z,0.32
2022-12-19T01:47:44.335Z,0.29
2022-12-19T01:50:20.980Z,0.25
2022-12-19T01:52:49.035Z,0.25
2022-12-19T01:55:17.955Z,0.27
2022-12-19T01:57:46.838Z,0.29
2022-12-19T02:00:15.808Z,0.28
2022-12-19T02:02:55.685Z,0.25
2022-12-19T02:05:23.521Z,0.20
2022-12-19T02:07:53.246Z,0.20
2022-12-19T02:10:22.233Z,0.17
2022-12-19T02:12:50.806Z,0.10
2022-12-19T02:15:21.229Z,0.08
2022-12-19T02:18:00.188Z,-0.05
2022-12-19T02:20:29.335Z,-0.12
2022-12-19T02:23:17.025Z,-0.10
2022-12-19T02:25:51.268Z,-0.20
2022-12-19T02:28:23.484Z,-0.19
2022-12-19T02:31:17.429Z,-0.22
2022-12-19T02:34:15.965Z,-0.32
2022-12-19T02:37:01.595Z,-0.37
2022-12-19T02:39:35.353Z,-0.42
2022-12-19T02:42:08.351Z,-0.45
2022-12-19T02:44:50.186Z,-0.47
2022-12-19T02:47:19.078Z,-0.52
2022-12-19T02:49:47.181Z,-0.58
2022-12-19T02:52:21.130Z,-0.58
2022-12-19T02:54:53.552Z,-0.53
2022-12-19T02:57:42.347Z,-0.55
2022-12-19T03:00:10.864Z,-0.55
2022-12-19T03:02:57.925Z,-0.52
2022-12-19T03:05:42.846Z,-0.49
2022-12-19T03:08:24.296Z,-0.49
2022-12-19T03:11:13.869Z,-0.52
2022-12-19T03:14:08.413Z,-0.53
2022-12-19T03:16:37.188Z,-0.55
2022-12-19T03:19:12.137Z,-0.52
2022-12-19T03:21:47.936Z,-0.54
2022-12-19T03:24:17.480Z,-0.59
2022-12-19T03:26:49.916Z,-0.67
2022-12-19T03:29:32.937Z,-0.60
2022-12-19T03:32:03.852Z,-0.67
2022-12-19T03:34:45.070Z,-0.74
2022-12-19T03:37:14.764Z,-0.72
2022-12-19T03:39:43.702Z,-0.67
2022-12-19T03:42:30.767Z,-0.70
2022-12-19T03:45:01.433Z,-0.76
2022-12-19T03:47:33.152Z,-0.63
2022-12-19T03:50:01.277Z,-0.63
2022-12-19T03:52:34.428Z,-0.73
2022-12-19T03:55:08.282Z,-0.77
2022-12-19T03:58:02.408Z,-0.72
2022-12-19T04:00:31.940Z,-0.72
2022-12-19T04:02:59.537Z,-0.79
2022-12-19T04:05:28.028Z,-0.84
2022-12-19T04:08:02.456Z,-0.93
2022-12-19T04:10:29.990Z,-0.93
2022-12-19T04:13:06.232Z,-0.89
2022-12-19T04:15:38.316Z,-0.93
2022-12-19T04:18:07.214Z,-0.92
2022-12-19T04:20:37.332Z,-0.88
2022-12-19T04:23:08.148Z,-0.89
2022-12-19T04:25:38.337Z,-0.88
2022-12-19T04:28:10.095Z,-0.90
2022-12-19T04:30:42.413Z,-0.93
2022-12-19T04:33:09.710Z,-0.84
2022-12-19T04:35:38.676Z,-0.90
2022-12-19T04:38:06.732Z,-0.90
2022-12-19T04:40:40.801Z,-0.95
2022-12-19T04:43:09.175Z,-0.91
2022-12-19T04:45:36.703Z,-0.92
2022-12-19T04:48:08.168Z,-0.96
2022-12-19T04:50:36.205Z,-1.01
2022-12-19T04:53:03.383Z,-1.12
2022-12-19T04:55:32.182Z,-1.03
2022-12-19T04:58:01.135Z,-1.17
2022-12-19T05:00:30.262Z,-1.15
2022-12-19T05:02:59.089Z,-1.11
2022-12-19T05:05:27.861Z,-1.11
2022-12-19T05:07:55.494Z,-1.09
2022-12-19T05:10:22.950Z,-1.17
2022-12-19T05:12:51.618Z,-1.22
2022-12-19T05:15:18.745Z,-1.30
2022-12-19T05:17:46.753Z,-1.21
2022-12-19T05:20:14.639Z,-1.29
2022-12-19T05:22:42.673Z,-1.23
2022-12-19T05:25:10.695Z,-1.23
2022-12-19T05:27:38.279Z,-1.17
2022-12-19T05:30:07.085Z,-1.12
2022-12-19T05:32:36.031Z,-0.97
2022-12-19T05:35:04.999Z,-1.05
2022-12-19T05:37:33.160Z,-0.95
2022-12-19T05:40:00.932Z,-0.99
2022-12-19T05:42:31.246Z,-1.01
2022-12-19T05:45:00.623Z,-0.99
2022-12-19T05:47:28.591Z,-0.90
2022-12-19T05:49:56.579Z,-0.97
2022-12-19T05:52:24.741Z,-1.06
2022-12-19T05:54:51.794Z,-1.09
2022-12-19T05:57:20.190Z,-1.03
2022-12-19T05:59:47.575Z,-1.00
2022-12-19T06:02:15.123Z,-0.98
2022-12-19T06:04:43.032Z,-0.95
2022-12-19T06:07:10.994Z,-0.95
2022-12-19T06:09:41.778Z,-0.99
2022-12-19T06:12:09.445Z,-0.98
2022-12-19T06:14:37.618Z,-0.75
2022-12-19T06:17:04.709Z,-0.90
2022-12-19T06:19:34.018Z,-0.84
2022-12-19T06:22:02.427Z,-0.79
2022-12-19T06:24:29.858Z,-0.80
2022-12-19T06:26:56.901Z,-0.79
2022-12-19T06:29:24.451Z,-0.68
2022-12-19T06:32:43.978Z,-0.51
2022-12-19T06:35:12.955Z,-0.62
2022-12-19T06:37:40.048Z,-0.62
2022-12-19T06:40:07.882Z,-0.65
2022-12-19T06:42:36.643Z,-0.70
2022-12-19T06:45:04.003Z,-0.68
2022-12-19T06:47:31.576Z,-0.67
2022-12-19T06:49:59.580Z,-0.61
2022-12-19T06:52:27.503Z,-0.51
2022-12-19T06:54:57.554Z,-0.52
2022-12-19T06:57:28.241Z,-0.52
2022-12-19T06:59:59.330Z,-0.74
2022-12-19T07:02:31.121Z,-0.74
2022-12-19T07:05:18.439Z,-0.87
2022-12-19T07:07:46.904Z,-0.98
2022-12-19T07:10:15.772Z,-1.08
2022-12-19T07:12:44.757Z,-1.10
2022-12-19T07:15:12.355Z,-1.14
2022-12-19T07:17:39.616Z,-1.17
2022-12-19T07:20:08.125Z,-1.14
2022-12-19T07:22:37.922Z,-1.08
2022-12-19T07:25:06.835Z,-1.07
2022-12-19T07:27:39.953Z,-1.05
2022-12-19T07:30:09.175Z,-1.01
2022-12-19T07:32:36.631Z,-0.91
2022-12-19T07:35:04.069Z,-0.89
2022-12-19T07:37:37.580Z,-0.78
2022-12-19T07:40:07.759Z,-0.67
2022-12-19T07:42:35.176Z,-0.61
2022-12-19T07:45:02.396Z,-0.64
2022-12-19T07:47:33.179Z,-0.75
2022-12-19T07:50:01.534Z,-0.81
2022-12-19T07:52:29.166Z,-0.82
2022-12-19T07:54:56.643Z,-0.87
2022-12-19T07:57:28.689Z,-0.90
2022-12-19T08:00:04.754Z,-0.85
2022-12-19T08:02:41.296Z,-0.86
2022-12-19T08:05:09.279Z,-0.84
2022-12-19T08:07:36.641Z,-0.81
2022-12-19T08:10:04.045Z,-0.79
2022-12-19T08:12:33.862Z,-0.75
2022-12-19T08:15:01.001Z,-0.67
2022-12-19T08:17:28.245Z,-0.64
2022-12-19T08:19:55.503Z,-0.60
2022-12-19T08:22:26.696Z,-0.49
2022-12-19T08:24:53.885Z,-0.50
2022-12-19T08:27:21.123Z,-0.28
2022-12-19T08:29:48.321Z,-0.26
2022-12-19T08:32:20.852Z,-0.25
2022-12-19T08:34:50.547Z,-0.17
2022-12-19T08:37:21.089Z,-0.08
2022-12-19T08:39:48.429Z,0.02
2022-12-19T08:42:23.945Z,0.11
2022-12-19T08:44:51.212Z,0.10
2022-12-19T08:47:20.628Z,0.12
2022-12-19T08:53:38.947Z,0.24
2022-12-19T08:56:15.300Z,0.49
2022-12-19T08:58:42.909Z,0.52
2022-12-19T09:01:16.413Z,0.50
2022-12-19T09:05:55.510Z,0.48
2022-12-19T09:06:32.131Z,0.46
2022-12-19T09:11:47.621Z,0.53
2022-12-19T09:14:21.470Z,0.53
2022-12-19T09:17:04.869Z,0.54
2022-12-19T09:19:32.536Z,0.57
2022-12-19T09:21:59.717Z,0.57
2022-12-19T09:24:27.001Z,0.59
2022-12-19T09:26:54.719Z,0.59
2022-12-19T09:29:22.551Z,0.61
2022-12-19T09:31:55.264Z,0.64
2022-12-19T09:34:29.967Z,0.65
2022-12-19T09:37:11.694Z,0.71
2022-12-19T09:39:59.420Z,0.75
2022-12-19T09:42:53.396Z,0.75
2022-12-19T09:45:31.700Z,0.88
2022-12-19T09:48:00.802Z,0.89
2022-12-19T09:50:46.842Z,0.89
2022-12-19T09:53:28.981Z,0.95
2022-12-19T09:56:00.242Z,0.97
2022-12-19T09:58:40.698Z,1.00
2022-12-19T10:01:21.500Z,0.95
2022-12-19T10:04:20.282Z,1.00
2022-12-19T10:07:16.303Z,0.98
2022-12-19T10:11:53.370Z,0.98
2022-12-19T10:12:51.353Z,1.01
2022-12-19T10:15:34.838Z,1.08
2022-12-19T10:18:32.881Z,1.15
2022-12-19T10:21:05.543Z,1.31
2022-12-19T10:23:36.985Z,1.28
2022-12-19T10:26:14.772Z,1.26
2022-12-19T10:28:54.919Z,1.32
2022-12-19T10:31:31.762Z,1.34
2022-12-19T10:34:20.570Z,1.41
2022-12-19T10:39:46.042Z,1.40
2022-12-19T10:42:25.078Z,1.45
2022-12-19T10:44:53.858Z,1.61
2022-12-19T10:47:21.161Z,1.85
2022-12-19T10:52:49.287Z,1.82
2022-12-19T10:55:29.730Z,1.71
2022-12-19T10:58:15.951Z,1.68
2022-12-19T11:01:02.306Z,1.69
2022-12-19T11:03:42.235Z,1.72
2022-12-19T11:06:33.243Z,1.75
2022-12-19T11:09:27.897Z,1.76
2022-12-19T11:15:45.417Z,1.91
2022-12-19T11:20:30.689Z,1.91
2022-12-19T11:23:50.450Z,1.85
2022-12-19T11:29:33.482Z,1.98
2022-12-19T11:29:38.523Z,1.84
2022-12-19T11:30:47.661Z,2.01
2022-12-19T11:32:47.074Z,2.00
2022-12-19T11:35:24.754Z,2.08
2022-12-19T11:37:57.391Z,2.04
2022-12-19T11:40:31.512Z,2.00
2022-12-19T11:46:16.261Z,2.06
2022-12-19T11:48:51.415Z,2.14
2022-12-19T11:51:22.305Z,2.26
2022-12-19T11:54:03.034Z,2.38
2022-12-19T11:56:31.004Z,2.27
2022-12-19T11:59:12.105Z,2.32
2022-12-19T12:01:48.368Z,2.32
2022-12-19T12:04:38.603Z,2.28
2022-12-19T12:07:38.195Z,2.29
2022-12-19T12:13:31.751Z,2.40
2022-12-19T12:19:27.923Z,2.40
2022-12-19T12:27:12.271Z,2.48
2022-12-19T12:31:26.003Z,2.69
2022-12-19T12:31:29.887Z,2.60
2022-12-19T12:31:50.631Z,2.72
2022-12-19T12:31:51.534Z,2.72
2022-12-19T12:32:02.525Z,2.58
2022-12-19T12:35:46.222Z,2.71
2022-12-19T12:40:58.915Z,2.65
2022-12-19T12:43:47.294Z,2.81
2022-12-19T12:46:17.714Z,2.85
2022-12-19T12:49:00.393Z,2.81
2022-12-19T12:51:29.421Z,2.94
2022-12-19T12:54:08.180Z,2.83
2022-12-19T12:56:44.181Z,2.97
2022-12-19T12:59:24.554Z,2.96
2022-12-19T13:01:53.585Z,2.82
2022-12-19T13:04:26.346Z,2.73
2022-12-19T13:06:56.596Z,2.82
2022-12-19T13:09:29.207Z,2.88
2022-12-19T13:12:36.569Z,2.87
2022-12-19T13:15:37.584Z,2.89
2022-12-19T13:18:14.169Z,2.92
2022-12-19T13:20:41.682Z,2.77
2022-12-19T13:23:24.726Z,2.85
2022-12-19T13:25:53.722Z,2.79
2022-12-19T13:28:22.180Z,2.82
2022-12-19T13:31:20.854Z,2.81
2022-12-19T13:33:52.048Z,2.70
2022-12-19T13:39:51.848Z,3.03
2022-12-19T13:40:11.050Z,2.96
2022-12-19T13:43:28.609Z,3.01
2022-12-19T13:46:01.136Z,3.01
2022-12-19T13:48:44.229Z,2.96
2022-12-19T13:55:19.836Z,2.87
2022-12-19T13:57:48.686Z,2.86
2022-12-19T14:00:32.568Z,2.88
2022-12-19T14:03:00.468Z,2.97
2022-12-19T14:06:16.636Z,2.89
2022-12-19T14:08:32.184Z,2.84
2022-12-19T14:11:40.550Z,2.83
2022-12-19T14:14:34.190Z,2.89
2022-12-19T14:17:10.468Z,2.92
2022-12-19T14:19:43.669Z,2.88
2022-12-19T14:22:25.801Z,2.81
2022-12-19T14:28:14.265Z,2.80
2022-12-19T14:28:21.477Z,2.76
2022-12-19T14:31:00.476Z,2.76
2022-12-19T14:33:47.342Z,2.75
2022-12-19T14:36:27.240Z,2.79
2022-12-19T14:39:24.999Z,2.79
2022-12-19T14:42:11.320Z,2.77
2022-12-19T14:52:25.408Z,2.74
2022-12-19T14:52:34.560Z,2.84
2022-12-19T14:54:23.584Z,2.82
2022-12-19T14:54:40.845Z,2.81
2022-12-19T14:56:50.557Z,2.83
2022-12-19T15:02:12.281Z,2.81
2022-12-19T15:04:50.229Z,2.76
2022-12-19T15:07:38.877Z,2.68
2022-12-19T15:14:53.426Z,2.60
2022-12-19T15:16:24.597Z,2.67
2022-12-19T15:19:02.332Z,2.51
2022-12-19T15:21:30.836Z,2.37
2022-12-19T15:24:01.443Z,2.27
2022-12-19T15:26:29.817Z,2.14
2022-12-19T15:28:57.523Z,2.01
2022-12-19T15:31:35.931Z,1.91
2022-12-19T15:34:48.328Z,1.84
2022-12-19T15:37:14.343Z,1.75
2022-12-19T15:39:45.206Z,1.71
2022-12-19T15:42:18.857Z,1.68
2022-12-19T15:44:47.529Z,1.65
2022-12-19T15:47:30.358Z,1.65
2022-12-19T15:50:10.431Z,1.61
2022-12-19T15:52:42.594Z,1.54
2022-12-19T15:55:16.884Z,1.51
2022-12-19T15:57:55.819Z,1.46
2022-12-19T16:00:24.861Z,1.40
2022-12-19T16:03:23.377Z,1.33
2022-12-19T16:05:46.026Z,1.30
2022-12-19T16:08:23.308Z,1.31
2022-12-19T16:10:59.369Z,1.25
2022-12-19T16:13:31.718Z,1.24
2022-12-19T16:15:59.432Z,1.17
2022-12-19T16:18:26.932Z,1.11
2022-12-19T16:20:54.885Z,1.02
2022-12-19T16:27:43.019Z,1.05
2022-12-19T16:30:18.731Z,1.02
2022-12-19T16:32:46.945Z,1.11
2022-12-19T16:35:34.272Z,1.10
2022-12-19T16:38:06.120Z,1.01
2022-12-19T16:40:33.181Z,0.99
2022-12-19T16:43:05.361Z,1.01
2022-12-19T16:45:33.981Z,0.97
2022-12-19T16:48:01.130Z,0.95
2022-12-19T16:50:29.841Z,0.92
2022-12-19T16:52:57.266Z,0.91
2022-12-19T16:55:25.441Z,0.93
2022-12-19T16:57:54.079Z,0.88
2022-12-19T17:00:22.263Z,0.89
2022-12-19T17:02:51.552Z,0.88
2022-12-19T17:05:20.987Z,0.88
2022-12-19T17:07:48.445Z,0.85
2022-12-19T17:10:19.819Z,0.86
2022-12-19T17:12:50.613Z,0.84
2022-12-19T17:15:21.411Z,0.87
2022-12-19T17:17:49.362Z,0.86
2022-12-19T17:20:18.189Z,0.88
2022-12-19T17:22:45.689Z,0.87
2022-12-19T17:25:17.168Z,0.84
2022-12-19T17:27:44.676Z,0.88
2022-12-19T17:30:11.992Z,0.85
2022-12-19T17:32:39.884Z,0.80
2022-12-19T17:35:07.298Z,0.79
2022-12-19T17:37:34.740Z,0.76
2022-12-19T17:40:01.909Z,0.75
2022-12-19T17:42:35.285Z,0.77
2022-12-19T17:45:04.598Z,0.68
2022-12-19T17:47:31.819Z,0.64
2022-12-19T17:49:59.515Z,0.58
2022-12-19T17:52:26.627Z,0.63
2022-12-19T17:54:53.863Z,0.58
2022-12-19T17:57:20.963Z,0.48
2022-12-19T17:59:48.205Z,0.49
2022-12-19T18:02:21.160Z,0.52
2022-12-19T18:04:49.008Z,0.61
2022-12-19T18:07:17.357Z,0.59
2022-12-19T18:09:44.487Z,0.56
2022-12-19T18:12:11.709Z,0.57
2022-12-19T18:14:39.190Z,0.58
2022-12-19T18:17:06.460Z,0.59
2022-12-19T18:19:34.206Z,0.56
2022-12-19T18:22:01.336Z,0.55
2022-12-19T18:24:28.662Z,0.55
2022-12-19T18:26:55.951Z,0.53
2022-12-19T18:29:23.199Z,0.56
2022-12-19T18:31:51.290Z,0.55
2022-12-19T18:34:23.272Z,0.56
2022-12-19T18:36:51.478Z,0.53
2022-12-19T18:39:23.011Z,0.51
2022-12-19T18:41:51.642Z,0.51
2022-12-19T18:44:18.890Z,0.49
2022-12-19T18:46:48.478Z,0.47
2022-12-19T18:49:16.699Z,0.44
2022-12-19T18:51:44.681Z,0.44
2022-12-19T18:54:17.065Z,0.46
2022-12-19T18:56:44.578Z,0.52
2022-12-19T18:59:11.583Z,0.52
2022-12-19T19:01:41.201Z,0.53
2022-12-19T19:04:11.826Z,0.49
2022-12-19T19:06:39.621Z,0.48
2022-12-19T19:09:14.833Z,0.53
2022-12-19T19:12:10.824Z,0.51
2022-12-19T19:14:38.029Z,0.54
2022-12-19T19:17:06.476Z,0.53
2022-12-19T19:19:33.776Z,0.57
2022-12-19T19:22:00.915Z,0.67
2022-12-19T19:24:27.915Z,0.63
2022-12-19T19:26:55.642Z,0.68
2022-12-19T19:29:22.850Z,0.71
2022-12-19T19:31:51.385Z,0.77
2022-12-19T19:34:21.963Z,0.78
2022-12-19T19:36:53.960Z,0.80
2022-12-19T19:39:22.941Z,0.83
2022-12-19T19:41:50.040Z,0.84
2022-12-19T19:44:17.363Z,0.87
2022-12-19T19:46:44.824Z,0.90
2022-12-19T19:49:12.306Z,0.94
2022-12-19T19:51:39.541Z,0.99
2022-12-19T19:54:06.856Z,1.02
2022-12-19T19:56:34.101Z,1.03
2022-12-19T19:59:01.361Z,1.06
2022-12-19T20:01:31.124Z,1.12
2022-12-19T20:03:58.307Z,1.14
2022-12-19T20:06:25.839Z,1.16
2022-12-19T20:08:52.872Z,1.18
2022-12-19T20:11:20.784Z,1.20
2022-12-19T20:13:47.757Z,1.24
2022-12-19T20:16:16.760Z,1.29
2022-12-19T20:18:47.300Z,1.32
2022-12-19T20:21:14.484Z,1.34
2022-12-19T20:23:42.860Z,1.33
2022-12-19T20:26:11.349Z,1.35
2022-12-19T20:28:43.970Z,1.38
2022-12-19T20:31:15.367Z,1.42
2022-12-19T20:33:42.599Z,1.45
2022-12-19T20:36:10.803Z,1.45
2022-12-19T20:38:38.374Z,1.47
2022-12-19T20:41:05.895Z,1.49
2022-12-19T20:43:33.809Z,1.51
2022-12-19T20:46:11.762Z,1.50
2022-12-19T20:48:39.516Z,1.53
2022-12-19T20:51:06.796Z,1.56
2022-12-19T20:53:35.114Z,1.58
2022-12-19T20:56:04.250Z,1.63
2022-12-19T20:58:32.448Z,1.65
2022-12-19T21:01:19.538Z,1.67
2022-12-19T21:03:48.263Z,1.69
2022-12-19T21:06:17.054Z,1.74
2022-12-19T21:08:44.985Z,1.77
2022-12-19T21:11:13.054Z,1.75
2022-12-19T21:13:41.057Z,1.77
2022-12-19T21:16:10.167Z,1.77
2022-12-19T21:18:38.105Z,1.80
2022-12-19T21:21:06.056Z,1.80
2022-12-19T21:23:33.292Z,1.82
2022-12-19T21:26:01.499Z,1.83
2022-12-19T21:28:29.233Z,1.85
2022-12-19T21:31:00.854Z,1.85
2022-12-19T21:33:28.126Z,1.86
2022-12-19T21:35:55.298Z,1.88
2022-12-19T21:38:22.464Z,1.92
2022-12-19T21:40:50.408Z,1.92
2022-12-19T21:43:17.528Z,1.94
2022-12-19T21:45:44.560Z,1.96
2022-12-19T21:48:13.249Z,1.97
2022-12-19T21:50:40.879Z,1.95
2022-12-19T21:53:07.916Z,1.98
2022-12-19T21:55:35.887Z,2.00
2022-12-19T21:58:02.950Z,2.00
2022-12-19T22:00:30.039Z,2.00
2022-12-19T22:03:13.121Z,1.99
2022-12-19T22:05:41.876Z,1.98
2022-12-19T22:08:09.406Z,1.96
2022-12-19T22:10:38.197Z,1.97
2022-12-19T22:13:05.406Z,1.97
2022-12-19T22:15:32.446Z,1.96
2022-12-19T22:18:00.275Z,1.92
2022-12-19T22:20:27.493Z,1.91
2022-12-19T22:22:54.533Z,1.91
2022-12-19T22:25:21.644Z,1.92
2022-12-19T22:27:48.674Z,1.92
2022-12-19T22:30:15.781Z,1.94
2022-12-19T22:32:42.944Z,1.92
2022-12-19T22:35:09.997Z,1.92
2022-12-19T22:37:37.130Z,1.92
2022-12-19T22:40:04.559Z,1.93
2022-12-19T22:42:31.583Z,1.93
2022-12-19T22:44:59.250Z,1.95
2022-12-19T22:47:26.336Z,1.95
2022-12-19T22:49:53.323Z,1.95
2022-12-19T22:52:20.297Z,1.95
2022-12-19T22:54:47.662Z,2.03
2022-12-19T22:57:15.417Z,2.02
2022-12-19T22:59:42.849Z,1.99
2022-12-19T23:02:10.237Z,1.98
2022-12-19T23:04:37.404Z,1.99
2022-12-19T23:07:04.514Z,1.98
2022-12-19T23:09:31.557Z,2.00
2022-12-19T23:11:58.576Z,2.01
2022-12-19T23:14:25.598Z,2.01
2022-12-19T23:16:52.705Z,2.05
2022-12-19T23:19:19.754Z,2.05
2022-12-19T23:21:46.888Z,2.08
2022-12-19T23:24:14.112Z,2.05
2022-12-19T23:26:41.281Z,2.15
2022-12-19T23:29:10.509Z,2.11
2022-12-19T23:31:39.761Z,2.08
2022-12-19T23:34:06.866Z,2.06
2022-12-19T23:39:20.908Z,2.04
2022-12-19T23:41:48.018Z,2.04
2022-12-19T23:44:15.448Z,2.06
2022-12-19T23:46:42.657Z,2.08
2022-12-19T23:49:09.811Z,2.09
2022-12-19T23:51:38.438Z,2.05
2022-12-19T23:54:05.769Z,2.09
2022-12-19T23:56:33.075Z,2.10
2022-12-19T23:59:00.422Z,2.09
